sensor_id;sensor_type;location;lat;lon;timestamp;temperature;humidity
18506;DHT22;9382;53.242;10.438;2023-12-20T00:01:03;6.10;99.90
18506;DHT22;9382;53.242;10.438;2023-12-20T00:03:30;6.10;99.90
18506;DHT22;9382;53.242;10.438;2023-12-20T00:05:57;6.00;99.90
18506;DHT22;9382;53.242;10.438;2023-12-20T00:08:23;6.00;99.90
18506;DHT22;9382;53.242;10.438;2023-12-20T00:10:50;5.90;99.90
18506;DHT22;9382;53.242;10.438;2023-12-20T00:13:17;6.00;99.90
18506;DHT22;9382;53.242;10.438;2023-12-20T00:15:45;6.00;99.90
18506;DHT22;9382;53.242;10.438;2023-12-20T00:18:12;6.00;99.90
18506;DHT22;9382;53.242;10.438;2023-12-20T00:20:39;6.00;99.90
18506;DHT22;9382;53.242;10.438;2023-12-20T00:23:05;6.00;99.90
18506;DHT22;9382;53.242;10.438;2023-12-20T00:25:33;6.00;99.90
18506;DHT22;9382;53.242;10.438;2023-12-20T00:28:00;5.90;99.90
18506;DHT22;9382;53.242;10.438;2023-12-20T00:30:27;5.90;99.90
18506;DHT22;9382;53.242;10.438;2023-12-20T00:32:55;6.00;99.90
18506;DHT22;9382;53.242;10.438;2023-12-20T00:35:22;5.90;99.90
18506;DHT22;9382;53.242;10.438;2023-12-20T00:37:49;5.90;99.90
18506;DHT22;9382;53.242;10.438;2023-12-20T00:40:16;5.90;99.90
18506;DHT22;9382;53.242;10.438;2023-12-20T00:42:42;5.90;99.90
18506;DHT22;9382;53.242;10.438;2023-12-20T00:45:09;5.80;99.90
18506;DHT22;9382;53.242;10.438;2023-12-20T00:47:36;5.80;99.90
18506;DHT22;9382;53.242;10.438;2023-12-20T00:50:06;5.80;99.90
18506;DHT22;9382;53.242;10.438;2023-12-20T00:52:33;5.80;99.90
18506;DHT22;9382;53.242;10.438;2023-12-20T00:54:59;5.80;99.90
18506;DHT22;9382;53.242;10.438;2023-12-20T00:57:26;5.70;99.90
18506;DHT22;9382;53.242;10.438;2023-12-20T00:59:53;5.60;99.90
18506;DHT22;9382;53.242;10.438;2023-12-20T01:02:20;5.60;99.90
18506;DHT22;9382;53.242;10.438;2023-12-20T01:04:46;5.60;99.90
18506;DHT22;9382;53.242;10.438;2023-12-20T01:07:15;5.60;99.90
18506;DHT22;9382;53.242;10.438;2023-12-20T01:09:42;5.60;99.90
18506;DHT22;9382;53.242;10.438;2023-12-20T01:12:12;5.50;99.90
18506;DHT22;9382;53.242;10.438;2023-12-20T01:14:39;5.50;99.90
18506;DHT22;9382;53.242;10.438;2023-12-20T01:17:06;5.50;99.90
18506;DHT22;9382;53.242;10.438;2023-12-20T01:19:32;5.40;99.90
18506;DHT22;9382;53.242;10.438;2023-12-20T01:21:59;5.50;99.90
18506;DHT22;9382;53.242;10.438;2023-12-20T01:24:28;5.60;99.90
18506;DHT22;9382;53.242;10.438;2023-12-20T01:26:54;5.60;99.90
18506;DHT22;9382;53.242;10.438;2023-12-20T01:29:21;5.60;99.90
18506;DHT22;9382;53.242;10.438;2023-12-20T01:31:49;5.60;99.90
18506;DHT22;9382;53.242;10.438;2023-12-20T01:34:17;5.60;99.90
18506;DHT22;9382;53.242;10.438;2023-12-20T01:36:44;5.60;99.90
18506;DHT22;9382;53.242;10.438;2023-12-20T01:39:12;5.60;99.90
18506;DHT22;9382;53.242;10.438;2023-12-20T01:41:43;5.60;99.90
18506;DHT22;9382;53.242;10.438;2023-12-20T01:44:10;5.60;99.90
18506;DHT22;9382;53.242;10.438;2023-12-20T01:46:37;5.60;99.90
18506;DHT22;9382;53.242;10.438;2023-12-20T01:49:05;5.60;99.90
18506;DHT22;9382;53.242;10.438;2023-12-20T01:51:32;5.60;99.90
18506;DHT22;9382;53.242;10.438;2023-12-20T01:53:59;5.60;99.90
18506;DHT22;9382;53.242;10.438;2023-12-20T01:56:28;5.60;99.90
18506;DHT22;9382;53.242;10.438;2023-12-20T01:58:57;5.60;99.90
18506;DHT22;9382;53.242;10.438;2023-12-20T02:01:24;5.50;99.90
18506;DHT22;9382;53.242;10.438;2023-12-20T02:03:54;5.50;99.90
18506;DHT22;9382;53.242;10.438;2023-12-20T02:06:21;5.50;99.90
18506;DHT22;9382;53.242;10.438;2023-12-20T02:08:50;5.50;99.90
18506;DHT22;9382;53.242;10.438;2023-12-20T02:11:16;5.50;99.90
18506;DHT22;9382;53.242;10.438;2023-12-20T02:13:43;5.50;99.90
18506;DHT22;9382;53.242;10.438;2023-12-20T02:16:11;5.50;99.90
18506;DHT22;9382;53.242;10.438;2023-12-20T02:18:39;5.40;99.90
18506;DHT22;9382;53.242;10.438;2023-12-20T02:21:06;5.40;99.90
18506;DHT22;9382;53.242;10.438;2023-12-20T02:23:34;5.40;99.90
18506;DHT22;9382;53.242;10.438;2023-12-20T02:26:00;5.40;99.90
18506;DHT22;9382;53.242;10.438;2023-12-20T02:28:27;5.40;99.90
18506;DHT22;9382;53.242;10.438;2023-12-20T02:30:54;5.30;99.90
18506;DHT22;9382;53.242;10.438;2023-12-20T02:33:21;5.40;99.90
18506;DHT22;9382;53.242;10.438;2023-12-20T02:35:48;5.30;99.90
18506;DHT22;9382;53.242;10.438;2023-12-20T02:38:15;5.40;99.90
18506;DHT22;9382;53.242;10.438;2023-12-20T02:40:43;5.40;99.90
18506;DHT22;9382;53.242;10.438;2023-12-20T02:43:10;5.50;99.90
18506;DHT22;9382;53.242;10.438;2023-12-20T02:45:37;5.50;99.90
18506;DHT22;9382;53.242;10.438;2023-12-20T02:48:04;5.50;99.90
18506;DHT22;9382;53.242;10.438;2023-12-20T02:50:31;5.50;99.90
18506;DHT22;9382;53.242;10.438;2023-12-20T02:52:57;5.40;99.90
18506;DHT22;9382;53.242;10.438;2023-12-20T02:55:24;5.40;99.90
18506;DHT22;9382;53.242;10.438;2023-12-20T02:57:52;5.40;99.90
18506;DHT22;9382;53.242;10.438;2023-12-20T03:00:19;5.30;99.90
18506;DHT22;9382;53.242;10.438;2023-12-20T03:02:46;5.30;99.90
18506;DHT22;9382;53.242;10.438;2023-12-20T03:05:12;5.30;99.90
18506;DHT22;9382;53.242;10.438;2023-12-20T03:07:39;5.30;99.90
18506;DHT22;9382;53.242;10.438;2023-12-20T03:10:06;5.40;99.90
18506;DHT22;9382;53.242;10.438;2023-12-20T03:12:34;5.40;99.90
18506;DHT22;9382;53.242;10.438;2023-12-20T03:15:03;5.40;99.90
18506;DHT22;9382;53.242;10.438;2023-12-20T03:17:29;5.40;99.90
18506;DHT22;9382;53.242;10.438;2023-12-20T03:19:56;5.40;99.90
18506;DHT22;9382;53.242;10.438;2023-12-20T03:22:23;5.40;99.90
18506;DHT22;9382;53.242;10.438;2023-12-20T03:24:50;5.30;99.90
18506;DHT22;9382;53.242;10.438;2023-12-20T03:27:16;5.30;99.90
18506;DHT22;9382;53.242;10.438;2023-12-20T03:29:43;5.30;99.90
18506;DHT22;9382;53.242;10.438;2023-12-20T03:32:11;5.30;99.90
18506;DHT22;9382;53.242;10.438;2023-12-20T03:34:38;5.20;99.90
18506;DHT22;9382;53.242;10.438;2023-12-20T03:37:05;5.20;99.90
18506;DHT22;9382;53.242;10.438;2023-12-20T03:39:32;5.20;99.90
18506;DHT22;9382;53.242;10.438;2023-12-20T03:41:58;5.20;99.90
18506;DHT22;9382;53.242;10.438;2023-12-20T03:44:25;5.10;99.90
18506;DHT22;9382;53.242;10.438;2023-12-20T03:46:52;5.20;99.90
18506;DHT22;9382;53.242;10.438;2023-12-20T03:49:20;5.20;99.90
18506;DHT22;9382;53.242;10.438;2023-12-20T03:51:47;5.20;99.90
18506;DHT22;9382;53.242;10.438;2023-12-20T03:54:13;5.20;99.90
18506;DHT22;9382;53.242;10.438;2023-12-20T03:56:42;5.20;99.90
18506;DHT22;9382;53.242;10.438;2023-12-20T03:59:09;5.20;99.90
18506;DHT22;9382;53.242;10.438;2023-12-20T04:01:35;5.20;99.90
18506;DHT22;9382;53.242;10.438;2023-12-20T04:04:02;5.20;99.90
18506;DHT22;9382;53.242;10.438;2023-12-20T04:06:30;5.30;99.90
18506;DHT22;9382;53.242;10.438;2023-12-20T04:08:57;5.30;99.90
18506;DHT22;9382;53.242;10.438;2023-12-20T04:11:24;5.30;99.90
18506;DHT22;9382;53.242;10.438;2023-12-20T04:13:50;5.30;99.90
18506;DHT22;9382;53.242;10.438;2023-12-20T04:16:17;5.40;99.90
18506;DHT22;9382;53.242;10.438;2023-12-20T04:18:44;5.30;99.90
18506;DHT22;9382;53.242;10.438;2023-12-20T04:21:11;5.40;99.90
18506;DHT22;9382;53.242;10.438;2023-12-20T04:23:39;5.40;99.90
18506;DHT22;9382;53.242;10.438;2023-12-20T04:26:05;5.40;99.90
18506;DHT22;9382;53.242;10.438;2023-12-20T04:28:32;5.50;99.90
18506;DHT22;9382;53.242;10.438;2023-12-20T04:30:59;5.40;99.90
18506;DHT22;9382;53.242;10.438;2023-12-20T04:33:26;5.50;99.90
18506;DHT22;9382;53.242;10.438;2023-12-20T04:35:52;5.50;99.90
18506;DHT22;9382;53.242;10.438;2023-12-20T04:38:19;5.50;99.90
18506;DHT22;9382;53.242;10.438;2023-12-20T04:40:47;5.50;99.90
18506;DHT22;9382;53.242;10.438;2023-12-20T04:43:14;5.50;99.90
18506;DHT22;9382;53.242;10.438;2023-12-20T04:45:41;5.60;99.90
18506;DHT22;9382;53.242;10.438;2023-12-20T04:48:08;5.60;99.90
18506;DHT22;9382;53.242;10.438;2023-12-20T04:50:34;5.60;99.90
18506;DHT22;9382;53.242;10.438;2023-12-20T04:53:01;5.60;99.90
18506;DHT22;9382;53.242;10.438;2023-12-20T04:55:28;5.60;99.90
18506;DHT22;9382;53.242;10.438;2023-12-20T04:57:56;5.70;99.90
18506;DHT22;9382;53.242;10.438;2023-12-20T05:00:23;5.70;99.90
18506;DHT22;9382;53.242;10.438;2023-12-20T05:02:50;5.70;99.90
18506;DHT22;9382;53.242;10.438;2023-12-20T05:05:17;5.70;99.90
18506;DHT22;9382;53.242;10.438;2023-12-20T05:07:44;5.70;99.90
18506;DHT22;9382;53.242;10.438;2023-12-20T05:10:11;5.70;99.90
18506;DHT22;9382;53.242;10.438;2023-12-20T05:12:37;5.70;99.90
18506;DHT22;9382;53.242;10.438;2023-12-20T05:15:07;5.80;99.90
18506;DHT22;9382;53.242;10.438;2023-12-20T05:17:34;5.80;99.90
18506;DHT22;9382;53.242;10.438;2023-12-20T05:20:01;5.80;99.90
18506;DHT22;9382;53.242;10.438;2023-12-20T05:22:28;5.80;99.90
18506;DHT22;9382;53.242;10.438;2023-12-20T05:24:57;5.80;99.90
18506;DHT22;9382;53.242;10.438;2023-12-20T05:27:23;5.80;99.90
18506;DHT22;9382;53.242;10.438;2023-12-20T05:29:50;5.90;99.90
18506;DHT22;9382;53.242;10.438;2023-12-20T05:32:18;5.90;99.90
18506;DHT22;9382;53.242;10.438;2023-12-20T05:34:45;5.90;99.90
18506;DHT22;9382;53.242;10.438;2023-12-20T05:37:11;5.90;99.90
18506;DHT22;9382;53.242;10.438;2023-12-20T05:39:38;5.80;99.90
18506;DHT22;9382;53.242;10.438;2023-12-20T05:42:05;5.90;99.90
18506;DHT22;9382;53.242;10.438;2023-12-20T05:44:32;5.90;99.90
18506;DHT22;9382;53.242;10.438;2023-12-20T05:46:58;5.90;99.90
18506;DHT22;9382;53.242;10.438;2023-12-20T05:49:27;5.90;99.90
18506;DHT22;9382;53.242;10.438;2023-12-20T05:51:53;5.90;99.90
18506;DHT22;9382;53.242;10.438;2023-12-20T05:54:20;5.90;99.90
18506;DHT22;9382;53.242;10.438;2023-12-20T05:56:47;5.80;99.90
18506;DHT22;9382;53.242;10.438;2023-12-20T05:59:14;5.90;99.90
18506;DHT22;9382;53.242;10.438;2023-12-20T06:01:41;5.90;99.90
18506;DHT22;9382;53.242;10.438;2023-12-20T06:04:08;5.90;99.90
18506;DHT22;9382;53.242;10.438;2023-12-20T06:06:40;5.90;99.90
18506;DHT22;9382;53.242;10.438;2023-12-20T06:09:07;5.90;99.90
18506;DHT22;9382;53.242;10.438;2023-12-20T06:11:34;5.90;99.90
18506;DHT22;9382;53.242;10.438;2023-12-20T06:14:01;6.00;99.90
18506;DHT22;9382;53.242;10.438;2023-12-20T06:16:27;6.00;99.90
18506;DHT22;9382;53.242;10.438;2023-12-20T06:18:54;6.00;99.90
18506;DHT22;9382;53.242;10.438;2023-12-20T06:21:21;6.00;99.90
18506;DHT22;9382;53.242;10.438;2023-12-20T06:23:49;6.00;99.90
18506;DHT22;9382;53.242;10.438;2023-12-20T06:26:16;6.00;99.90
18506;DHT22;9382;53.242;10.438;2023-12-20T06:28:43;6.00;99.90
18506;DHT22;9382;53.242;10.438;2023-12-20T06:31:09;6.00;99.90
18506;DHT22;9382;53.242;10.438;2023-12-20T06:33:36;6.00;99.90
18506;DHT22;9382;53.242;10.438;2023-12-20T06:36:03;6.00;99.90
18506;DHT22;9382;53.242;10.438;2023-12-20T06:38:30;6.00;99.90
18506;DHT22;9382;53.242;10.438;2023-12-20T06:40:58;6.00;99.90
18506;DHT22;9382;53.242;10.438;2023-12-20T06:43:25;6.00;99.90
18506;DHT22;9382;53.242;10.438;2023-12-20T06:45:52;6.00;99.90
18506;DHT22;9382;53.242;10.438;2023-12-20T06:48:19;6.00;99.90
18506;DHT22;9382;53.242;10.438;2023-12-20T06:50:46;6.10;99.90
18506;DHT22;9382;53.242;10.438;2023-12-20T06:53:13;6.10;99.90
18506;DHT22;9382;53.242;10.438;2023-12-20T06:55:39;6.10;99.90
18506;DHT22;9382;53.242;10.438;2023-12-20T06:58:09;6.10;99.90
18506;DHT22;9382;53.242;10.438;2023-12-20T07:00:42;6.10;99.90
18506;DHT22;9382;53.242;10.438;2023-12-20T07:03:09;6.10;99.90
18506;DHT22;9382;53.242;10.438;2023-12-20T07:05:36;6.10;99.90
18506;DHT22;9382;53.242;10.438;2023-12-20T07:08:03;6.10;99.90
18506;DHT22;9382;53.242;10.438;2023-12-20T07:10:30;6.00;99.90
18506;DHT22;9382;53.242;10.438;2023-12-20T07:12:57;6.00;99.90
18506;DHT22;9382;53.242;10.438;2023-12-20T07:15:25;6.00;99.90
18506;DHT22;9382;53.242;10.438;2023-12-20T07:17:53;6.00;99.90
18506;DHT22;9382;53.242;10.438;2023-12-20T07:20:20;6.00;99.90
18506;DHT22;9382;53.242;10.438;2023-12-20T07:22:46;6.00;99.90
18506;DHT22;9382;53.242;10.438;2023-12-20T07:25:13;6.00;99.90
18506;DHT22;9382;53.242;10.438;2023-12-20T07:27:40;6.10;99.90
18506;DHT22;9382;53.242;10.438;2023-12-20T07:30:08;6.10;99.90
18506;DHT22;9382;53.242;10.438;2023-12-20T07:32:36;6.10;99.90
18506;DHT22;9382;53.242;10.438;2023-12-20T07:35:03;6.10;99.90
18506;DHT22;9382;53.242;10.438;2023-12-20T07:37:32;6.10;99.90
18506;DHT22;9382;53.242;10.438;2023-12-20T07:39:59;6.10;99.90
18506;DHT22;9382;53.242;10.438;2023-12-20T07:42:26;6.10;99.90
18506;DHT22;9382;53.242;10.438;2023-12-20T07:44:53;6.20;99.90
18506;DHT22;9382;53.242;10.438;2023-12-20T07:47:20;6.20;99.90
18506;DHT22;9382;53.242;10.438;2023-12-20T07:49:49;6.10;99.90
18506;DHT22;9382;53.242;10.438;2023-12-20T07:52:17;6.20;99.90
18506;DHT22;9382;53.242;10.438;2023-12-20T07:54:44;6.10;99.90
18506;DHT22;9382;53.242;10.438;2023-12-20T07:57:11;6.10;99.90
18506;DHT22;9382;53.242;10.438;2023-12-20T07:59:40;6.10;99.90
18506;DHT22;9382;53.242;10.438;2023-12-20T08:02:07;6.10;99.90
18506;DHT22;9382;53.242;10.438;2023-12-20T08:04:33;6.10;99.90
18506;DHT22;9382;53.242;10.438;2023-12-20T08:07:02;6.10;99.90
18506;DHT22;9382;53.242;10.438;2023-12-20T08:09:29;6.10;99.90
18506;DHT22;9382;53.242;10.438;2023-12-20T08:11:57;6.10;99.90
18506;DHT22;9382;53.242;10.438;2023-12-20T08:14:25;6.10;99.90
18506;DHT22;9382;53.242;10.438;2023-12-20T08:16:51;6.10;99.90
18506;DHT22;9382;53.242;10.438;2023-12-20T08:19:18;6.10;99.90
18506;DHT22;9382;53.242;10.438;2023-12-20T08:21:45;6.10;99.90
18506;DHT22;9382;53.242;10.438;2023-12-20T08:24:13;6.10;99.90
18506;DHT22;9382;53.242;10.438;2023-12-20T08:26:40;6.10;99.90
18506;DHT22;9382;53.242;10.438;2023-12-20T08:29:07;6.10;99.90
18506;DHT22;9382;53.242;10.438;2023-12-20T08:31:33;6.10;99.90
18506;DHT22;9382;53.242;10.438;2023-12-20T08:34:00;6.10;99.90
18506;DHT22;9382;53.242;10.438;2023-12-20T08:36:27;6.10;99.90
18506;DHT22;9382;53.242;10.438;2023-12-20T08:38:54;6.10;99.90
18506;DHT22;9382;53.242;10.438;2023-12-20T08:41:23;6.20;99.90
18506;DHT22;9382;53.242;10.438;2023-12-20T08:43:50;6.20;99.90
18506;DHT22;9382;53.242;10.438;2023-12-20T08:46:16;6.20;99.90
18506;DHT22;9382;53.242;10.438;2023-12-20T08:48:43;6.20;99.90
18506;DHT22;9382;53.242;10.438;2023-12-20T08:51:10;6.30;99.90
18506;DHT22;9382;53.242;10.438;2023-12-20T08:53:37;6.30;99.90
18506;DHT22;9382;53.242;10.438;2023-12-20T08:56:04;6.30;99.90
18506;DHT22;9382;53.242;10.438;2023-12-20T08:58:32;6.40;99.90
18506;DHT22;9382;53.242;10.438;2023-12-20T09:01:01;6.40;99.90
18506;DHT22;9382;53.242;10.438;2023-12-20T09:03:28;6.40;99.90
18506;DHT22;9382;53.242;10.438;2023-12-20T09:05:57;6.50;99.90
18506;DHT22;9382;53.242;10.438;2023-12-20T09:08:24;6.60;99.90
18506;DHT22;9382;53.242;10.438;2023-12-20T09:10:50;6.50;99.90
18506;DHT22;9382;53.242;10.438;2023-12-20T09:13:17;6.60;99.90
18506;DHT22;9382;53.242;10.438;2023-12-20T09:15:45;6.60;99.90
18506;DHT22;9382;53.242;10.438;2023-12-20T09:18:12;6.70;99.90
18506;DHT22;9382;53.242;10.438;2023-12-20T09:20:39;6.70;99.90
18506;DHT22;9382;53.242;10.438;2023-12-20T09:23:05;6.70;99.90
18506;DHT22;9382;53.242;10.438;2023-12-20T09:25:33;6.60;99.90
18506;DHT22;9382;53.242;10.438;2023-12-20T09:28:00;6.50;99.90
18506;DHT22;9382;53.242;10.438;2023-12-20T09:30:27;6.40;99.90
18506;DHT22;9382;53.242;10.438;2023-12-20T09:32:56;6.30;99.90
18506;DHT22;9382;53.242;10.438;2023-12-20T09:35:23;6.30;99.90
18506;DHT22;9382;53.242;10.438;2023-12-20T09:37:51;6.30;99.90
18506;DHT22;9382;53.242;10.438;2023-12-20T09:40:19;6.20;99.90
18506;DHT22;9382;53.242;10.438;2023-12-20T09:42:50;6.20;99.90
18506;DHT22;9382;53.242;10.438;2023-12-20T09:45:22;6.20;99.90
18506;DHT22;9382;53.242;10.438;2023-12-20T09:47:50;6.20;99.90
18506;DHT22;9382;53.242;10.438;2023-12-20T09:50:19;6.20;99.90
18506;DHT22;9382;53.242;10.438;2023-12-20T09:52:49;6.20;99.90
18506;DHT22;9382;53.242;10.438;2023-12-20T09:55:17;6.20;99.90
18506;DHT22;9382;53.242;10.438;2023-12-20T09:57:44;6.20;99.90
18506;DHT22;9382;53.242;10.438;2023-12-20T10:00:12;6.20;99.90
18506;DHT22;9382;53.242;10.438;2023-12-20T10:02:44;6.20;99.90
18506;DHT22;9382;53.242;10.438;2023-12-20T10:05:16;6.20;99.90
18506;DHT22;9382;53.242;10.438;2023-12-20T10:07:45;6.20;99.90
18506;DHT22;9382;53.242;10.438;2023-12-20T10:10:13;6.10;99.90
18506;DHT22;9382;53.242;10.438;2023-12-20T10:12:40;5.80;99.90
18506;DHT22;9382;53.242;10.438;2023-12-20T10:15:07;5.60;99.90
18506;DHT22;9382;53.242;10.438;2023-12-20T10:17:35;5.50;99.90
18506;DHT22;9382;53.242;10.438;2023-12-20T10:20:03;5.50;99.90
18506;DHT22;9382;53.242;10.438;2023-12-20T10:22:34;5.50;99.90
18506;DHT22;9382;53.242;10.438;2023-12-20T10:25:03;5.60;99.90
18506;DHT22;9382;53.242;10.438;2023-12-20T10:27:30;5.60;99.90
18506;DHT22;9382;53.242;10.438;2023-12-20T10:29:58;5.60;99.90
18506;DHT22;9382;53.242;10.438;2023-12-20T10:32:26;5.60;99.90
18506;DHT22;9382;53.242;10.438;2023-12-20T10:34:55;5.60;99.90
18506;DHT22;9382;53.242;10.438;2023-12-20T10:37:22;5.60;99.90
18506;DHT22;9382;53.242;10.438;2023-12-20T10:39:50;5.70;99.90
18506;DHT22;9382;53.242;10.438;2023-12-20T10:42:20;5.70;99.90
18506;DHT22;9382;53.242;10.438;2023-12-20T10:44:48;5.70;99.90
18506;DHT22;9382;53.242;10.438;2023-12-20T10:47:17;5.70;99.90
18506;DHT22;9382;53.242;10.438;2023-12-20T10:49:45;5.70;99.90
18506;DHT22;9382;53.242;10.438;2023-12-20T10:52:13;5.80;99.90
18506;DHT22;9382;53.242;10.438;2023-12-20T10:54:41;5.80;99.90
18506;DHT22;9382;53.242;10.438;2023-12-20T10:57:08;5.80;99.90
18506;DHT22;9382;53.242;10.438;2023-12-20T10:59:37;5.90;99.90
18506;DHT22;9382;53.242;10.438;2023-12-20T11:02:04;6.00;99.90
18506;DHT22;9382;53.242;10.438;2023-12-20T11:04:39;6.00;99.90
18506;DHT22;9382;53.242;10.438;2023-12-20T11:07:17;6.20;99.90
18506;DHT22;9382;53.242;10.438;2023-12-20T11:09:52;6.10;99.90
18506;DHT22;9382;53.242;10.438;2023-12-20T11:12:28;6.10;99.90
18506;DHT22;9382;53.242;10.438;2023-12-20T11:15:00;6.10;99.90
18506;DHT22;9382;53.242;10.438;2023-12-20T11:17:30;6.00;99.90
18506;DHT22;9382;53.242;10.438;2023-12-20T11:20:05;6.00;99.90
18506;DHT22;9382;53.242;10.438;2023-12-20T11:22:32;6.00;99.90
18506;DHT22;9382;53.242;10.438;2023-12-20T11:25:04;6.00;99.90
18506;DHT22;9382;53.242;10.438;2023-12-20T11:27:30;6.00;99.90
18506;DHT22;9382;53.242;10.438;2023-12-20T11:29:59;5.90;99.90
18506;DHT22;9382;53.242;10.438;2023-12-20T11:32:29;5.90;99.90
18506;DHT22;9382;53.242;10.438;2023-12-20T11:34:56;5.90;99.90
18506;DHT22;9382;53.242;10.438;2023-12-20T11:37:29;5.90;99.90
18506;DHT22;9382;53.242;10.438;2023-12-20T11:40:01;5.80;99.90
18506;DHT22;9382;53.242;10.438;2023-12-20T11:42:33;5.90;99.90
18506;DHT22;9382;53.242;10.438;2023-12-20T11:45:01;5.90;99.90
18506;DHT22;9382;53.242;10.438;2023-12-20T11:47:29;5.90;99.90
18506;DHT22;9382;53.242;10.438;2023-12-20T11:49:56;5.90;99.90
18506;DHT22;9382;53.242;10.438;2023-12-20T11:52:26;5.80;99.90
18506;DHT22;9382;53.242;10.438;2023-12-20T11:54:54;5.90;99.90
18506;DHT22;9382;53.242;10.438;2023-12-20T11:57:21;6.00;99.90
18506;DHT22;9382;53.242;10.438;2023-12-20T11:59:48;6.10;99.90
18506;DHT22;9382;53.242;10.438;2023-12-20T12:02:24;6.20;99.90
18506;DHT22;9382;53.242;10.438;2023-12-20T12:04:53;6.40;99.90
18506;DHT22;9382;53.242;10.438;2023-12-20T12:07:20;6.60;99.90
18506;DHT22;9382;53.242;10.438;2023-12-20T12:09:47;6.80;99.90
18506;DHT22;9382;53.242;10.438;2023-12-20T12:12:15;7.00;99.90
18506;DHT22;9382;53.242;10.438;2023-12-20T12:14:42;7.10;99.90
18506;DHT22;9382;53.242;10.438;2023-12-20T12:17:11;7.10;99.90
18506;DHT22;9382;53.242;10.438;2023-12-20T12:19:40;7.20;99.90
18506;DHT22;9382;53.242;10.438;2023-12-20T12:22:08;7.20;99.90
18506;DHT22;9382;53.242;10.438;2023-12-20T12:24:41;7.10;99.90
18506;DHT22;9382;53.242;10.438;2023-12-20T12:27:08;7.10;99.90
18506;DHT22;9382;53.242;10.438;2023-12-20T12:29:37;7.00;99.90
18506;DHT22;9382;53.242;10.438;2023-12-20T12:32:05;7.10;99.90
18506;DHT22;9382;53.242;10.438;2023-12-20T12:34:33;7.00;99.90
18506;DHT22;9382;53.242;10.438;2023-12-20T12:37:03;6.90;99.90
18506;DHT22;9382;53.242;10.438;2023-12-20T12:39:30;6.80;99.90
18506;DHT22;9382;53.242;10.438;2023-12-20T12:41:57;6.80;99.90
18506;DHT22;9382;53.242;10.438;2023-12-20T12:44:24;6.80;99.90
18506;DHT22;9382;53.242;10.438;2023-12-20T12:46:51;7.00;99.90
18506;DHT22;9382;53.242;10.438;2023-12-20T12:49:19;6.90;99.90
18506;DHT22;9382;53.242;10.438;2023-12-20T12:51:46;6.90;99.90
18506;DHT22;9382;53.242;10.438;2023-12-20T12:54:14;6.90;99.90
18506;DHT22;9382;53.242;10.438;2023-12-20T12:56:43;6.90;99.90
18506;DHT22;9382;53.242;10.438;2023-12-20T12:59:12;7.00;99.90
18506;DHT22;9382;53.242;10.438;2023-12-20T13:01:39;6.90;99.90
18506;DHT22;9382;53.242;10.438;2023-12-20T13:04:06;6.70;99.90
18506;DHT22;9382;53.242;10.438;2023-12-20T13:06:36;6.60;99.90
18506;DHT22;9382;53.242;10.438;2023-12-20T13:09:14;6.50;99.90
18506;DHT22;9382;53.242;10.438;2023-12-20T13:11:43;7.00;99.90
18506;DHT22;9382;53.242;10.438;2023-12-20T13:14:09;7.70;99.90
18506;DHT22;9382;53.242;10.438;2023-12-20T13:16:40;8.20;99.90
18506;DHT22;9382;53.242;10.438;2023-12-20T13:19:07;8.40;99.90
18506;DHT22;9382;53.242;10.438;2023-12-20T13:21:35;9.00;99.90
18506;DHT22;9382;53.242;10.438;2023-12-20T13:24:02;9.30;99.90
18506;DHT22;9382;53.242;10.438;2023-12-20T13:26:29;9.40;99.90
18506;DHT22;9382;53.242;10.438;2023-12-20T13:28:57;9.40;99.90
18506;DHT22;9382;53.242;10.438;2023-12-20T13:31:24;9.30;99.90
18506;DHT22;9382;53.242;10.438;2023-12-20T13:33:51;9.40;99.90
18506;DHT22;9382;53.242;10.438;2023-12-20T13:36:18;9.50;99.90
18506;DHT22;9382;53.242;10.438;2023-12-20T13:38:45;9.10;99.90
18506;DHT22;9382;53.242;10.438;2023-12-20T13:41:11;8.50;99.90
18506;DHT22;9382;53.242;10.438;2023-12-20T13:43:38;7.80;99.90
18506;DHT22;9382;53.242;10.438;2023-12-20T13:46:06;7.40;99.90
18506;DHT22;9382;53.242;10.438;2023-12-20T13:48:33;6.90;99.90
18506;DHT22;9382;53.242;10.438;2023-12-20T13:51:00;6.80;99.90
18506;DHT22;9382;53.242;10.438;2023-12-20T13:53:28;6.60;99.90
18506;DHT22;9382;53.242;10.438;2023-12-20T13:55:55;6.50;99.90
18506;DHT22;9382;53.242;10.438;2023-12-20T13:58:21;6.50;99.90
18506;DHT22;9382;53.242;10.438;2023-12-20T14:00:48;6.40;99.90
18506;DHT22;9382;53.242;10.438;2023-12-20T14:03:18;6.50;99.90
18506;DHT22;9382;53.242;10.438;2023-12-20T14:05:45;6.50;99.90
18506;DHT22;9382;53.242;10.438;2023-12-20T14:08:12;6.40;99.90
18506;DHT22;9382;53.242;10.438;2023-12-20T14:10:42;6.40;99.90
18506;DHT22;9382;53.242;10.438;2023-12-20T14:13:12;6.20;99.90
18506;DHT22;9382;53.242;10.438;2023-12-20T14:15:39;6.20;99.90
18506;DHT22;9382;53.242;10.438;2023-12-20T14:18:06;6.10;99.90
18506;DHT22;9382;53.242;10.438;2023-12-20T14:20:36;6.20;99.90
18506;DHT22;9382;53.242;10.438;2023-12-20T14:23:05;6.20;99.90
18506;DHT22;9382;53.242;10.438;2023-12-20T14:25:32;6.20;99.90
18506;DHT22;9382;53.242;10.438;2023-12-20T14:27:59;6.20;99.90
18506;DHT22;9382;53.242;10.438;2023-12-20T14:30:26;6.20;99.90
18506;DHT22;9382;53.242;10.438;2023-12-20T14:32:53;6.10;99.90
18506;DHT22;9382;53.242;10.438;2023-12-20T14:35:20;6.10;99.90
18506;DHT22;9382;53.242;10.438;2023-12-20T14:37:48;6.10;99.90
18506;DHT22;9382;53.242;10.438;2023-12-20T14:40:15;6.00;99.90
18506;DHT22;9382;53.242;10.438;2023-12-20T14:42:42;6.00;99.90
18506;DHT22;9382;53.242;10.438;2023-12-20T14:45:09;5.90;99.90
18506;DHT22;9382;53.242;10.438;2023-12-20T14:47:36;5.90;99.90
18506;DHT22;9382;53.242;10.438;2023-12-20T14:50:04;5.90;99.90
18506;DHT22;9382;53.242;10.438;2023-12-20T14:52:31;5.90;99.90
18506;DHT22;9382;53.242;10.438;2023-12-20T14:55:00;5.80;99.90
18506;DHT22;9382;53.242;10.438;2023-12-20T14:57:28;5.90;99.90
18506;DHT22;9382;53.242;10.438;2023-12-20T14:59:55;5.80;99.90
18506;DHT22;9382;53.242;10.438;2023-12-20T15:02:22;5.80;99.90
18506;DHT22;9382;53.242;10.438;2023-12-20T15:04:49;5.80;99.90
18506;DHT22;9382;53.242;10.438;2023-12-20T15:07:16;5.80;99.90
18506;DHT22;9382;53.242;10.438;2023-12-20T15:09:43;5.80;99.90
18506;DHT22;9382;53.242;10.438;2023-12-20T15:12:13;5.70;99.90
18506;DHT22;9382;53.242;10.438;2023-12-20T15:14:40;5.70;99.90
18506;DHT22;9382;53.242;10.438;2023-12-20T15:17:06;5.70;99.90
18506;DHT22;9382;53.242;10.438;2023-12-20T15:19:33;5.60;99.90
18506;DHT22;9382;53.242;10.438;2023-12-20T15:22:00;5.60;99.90
18506;DHT22;9382;53.242;10.438;2023-12-20T15:24:29;5.60;99.90
18506;DHT22;9382;53.242;10.438;2023-12-20T15:27:04;5.60;99.90
18506;DHT22;9382;53.242;10.438;2023-12-20T15:29:33;5.70;99.90
18506;DHT22;9382;53.242;10.438;2023-12-20T15:32:00;5.70;99.90
18506;DHT22;9382;53.242;10.438;2023-12-20T15:34:27;5.60;99.90
18506;DHT22;9382;53.242;10.438;2023-12-20T15:36:54;5.60;99.90
18506;DHT22;9382;53.242;10.438;2023-12-20T15:39:21;5.70;99.90
18506;DHT22;9382;53.242;10.438;2023-12-20T15:41:48;5.70;99.90
18506;DHT22;9382;53.242;10.438;2023-12-20T15:44:14;5.70;99.90
18506;DHT22;9382;53.242;10.438;2023-12-20T15:46:42;5.70;99.90